Time;durP1;ratioP1;P1;durP2;ratioP2;P2;SDS_P1;SDS_P2;PMS_P1;PMS_P2;Temp;Humidity;BMP_temperature;BMP_pressure;BME280_temperature;BME280_humidity;BME280_pressure;Samples;Min_cycle;Max_cycle;Signal;HPM_P1;HPM_P2
2021/04/27 00:00:24;;;;;;;;;;;4.80;65.70;;;;;;5048899;28;19924;-76
2021/04/27 00:02:50;;;;;;;;;;;4.80;65.90;;;;;;5048413;28;19921;-76
2021/04/27 00:05:16;;;;;;;;;;;4.80;66.00;;;;;;5049471;28;20027;-76
2021/04/27 00:07:42;;;;;;;;;;;4.70;67.80;;;;;;5047358;28;19929;-76
2021/04/27 00:10:08;;;;;;;;;;;4.70;67.50;;;;;;5029466;28;19939;-76
2021/04/27 00:12:38;;;;;;;;;;;4.70;67.50;;;;;;5027199;28;19999;-76
2021/04/27 00:15:06;;;;;;;;;;;4.70;69.40;;;;;;5028207;28;19942;-76
2021/04/27 00:17:34;;;;;;;;;;;4.60;69.10;;;;;;5030773;28;19925;-76
2021/04/27 00:20:00;;;;;;;;;;;4.60;67.80;;;;;;5046840;28;20349;-76
2021/04/27 00:22:25;;;;;;;;;;;4.60;67.80;;;;;;5047856;28;19913;-76
2021/04/27 00:24:51;;;;;;;;;;;4.60;68.10;;;;;;5015574;28;19982;-76
2021/04/27 00:27:18;;;;;;;;;;;4.60;67.40;;;;;;5047423;28;20577;-76
2021/04/27 00:29:46;;;;;;;;;;;4.60;69.60;;;;;;5048904;28;19925;-76
2021/04/27 00:32:12;;;;;;;;;;;4.60;69.50;;;;;;5048535;28;20423;-76
2021/04/27 00:34:37;;;;;;;;;;;4.50;70.50;;;;;;5046453;28;19912;-76
2021/04/27 00:37:03;;;;;;;;;;;4.50;69.10;;;;;;5047586;28;19962;-76
2021/04/27 00:39:28;;;;;;;;;;;4.50;69.30;;;;;;5029263;28;19917;-76
2021/04/27 00:41:54;;;;;;;;;;;4.50;69.60;;;;;;5028464;28;19960;-76
2021/04/27 00:44:19;;;;;;;;;;;4.50;71.40;;;;;;5048598;28;20353;-76
2021/04/27 00:46:45;;;;;;;;;;;4.50;70.30;;;;;;5029681;28;20406;-76
2021/04/27 00:49:10;;;;;;;;;;;4.40;70.80;;;;;;5028365;28;19925;-76
2021/04/27 00:51:35;;;;;;;;;;;4.40;70.40;;;;;;5048509;28;19925;-76
2021/04/27 00:54:03;;;;;;;;;;;4.50;70.00;;;;;;5029733;28;19958;-76
2021/04/27 00:56:29;;;;;;;;;;;4.50;70.30;;;;;;5046852;28;19920;-76
2021/04/27 00:58:54;;;;;;;;;;;4.50;69.70;;;;;;5001594;28;19989;-76
2021/04/27 01:01:20;;;;;;;;;;;4.50;69.70;;;;;;5047473;28;19968;-76
2021/04/27 01:03:45;;;;;;;;;;;4.50;69.50;;;;;;5046785;28;19927;-76
2021/04/27 01:06:11;;;;;;;;;;;4.50;70.00;;;;;;5028808;28;19921;-75
2021/04/27 01:08:42;;;;;;;;;;;4.40;71.60;;;;;;5047147;28;20464;-76
2021/04/27 01:11:27;;;;;;;;;;;4.40;70.60;;;;;;5046276;28;20461;-76
2021/04/27 01:13:58;;;;;;;;;;;4.40;70.50;;;;;;5029865;28;20278;-76
2021/04/27 01:16:23;;;;;;;;;;;4.40;70.20;;;;;;5012915;28;19925;-76
2021/04/27 01:18:50;;;;;;;;;;;4.40;70.80;;;;;;5011369;28;19931;-76
2021/04/27 01:21:15;;;;;;;;;;;4.40;69.80;;;;;;5029261;28;20603;-76
2021/04/27 01:23:44;;;;;;;;;;;4.40;69.10;;;;;;5030442;28;20010;-76
2021/04/27 01:26:13;;;;;;;;;;;4.40;69.10;;;;;;5031899;28;19920;-76
2021/04/27 01:28:41;;;;;;;;;;;4.40;69.70;;;;;;5034054;28;19928;-76
2021/04/27 01:31:07;;;;;;;;;;;4.40;70.80;;;;;;5033978;28;19959;-76
2021/04/27 01:33:35;;;;;;;;;;;4.40;69.80;;;;;;5032666;28;20003;-76
2021/04/27 01:36:03;;;;;;;;;;;4.40;70.60;;;;;;5033299;28;19955;-76
2021/04/27 01:38:28;;;;;;;;;;;4.30;71.50;;;;;;5031723;28;19952;-76
2021/04/27 01:40:54;;;;;;;;;;;4.30;70.60;;;;;;5032881;28;20028;-76
2021/04/27 01:43:20;;;;;;;;;;;4.30;69.30;;;;;;5032552;28;19923;-76
2021/04/27 01:45:49;;;;;;;;;;;4.30;69.40;;;;;;5050223;28;19932;-76
2021/04/27 01:48:14;;;;;;;;;;;4.30;69.30;;;;;;5030089;28;20384;-76
2021/04/27 01:50:40;;;;;;;;;;;4.30;71.20;;;;;;5014691;28;19920;-76
2021/04/27 01:53:06;;;;;;;;;;;4.30;71.20;;;;;;5018311;28;19921;-76
2021/04/27 01:55:31;;;;;;;;;;;4.30;69.60;;;;;;5033711;28;19917;-76
2021/04/27 01:57:57;;;;;;;;;;;4.30;70.60;;;;;;5050589;28;20400;-76
2021/04/27 02:00:23;;;;;;;;;;;4.30;70.50;;;;;;5013693;28;19916;-76
2021/04/27 02:02:48;;;;;;;;;;;4.30;70.10;;;;;;5049811;28;19923;-76
2021/04/27 02:05:16;;;;;;;;;;;4.30;69.70;;;;;;5031687;28;19916;-76
2021/04/27 02:07:44;;;;;;;;;;;4.30;70.50;;;;;;5033301;28;19924;-76
2021/04/27 02:10:11;;;;;;;;;;;4.30;70.30;;;;;;5051397;28;19916;-76
2021/04/27 02:12:36;;;;;;;;;;;4.30;71.20;;;;;;5048439;28;20346;-76
2021/04/27 02:15:03;;;;;;;;;;;4.30;71.50;;;;;;5031264;28;20004;-76
2021/04/27 02:17:31;;;;;;;;;;;4.30;71.40;;;;;;5050468;28;19995;-76
2021/04/27 02:20:00;;;;;;;;;;;4.30;70.10;;;;;;5032387;28;19997;-76
2021/04/27 02:22:28;;;;;;;;;;;4.30;69.50;;;;;;5032066;28;20369;-75
2021/04/27 02:24:54;;;;;;;;;;;4.20;69.70;;;;;;5049225;28;19917;-76
2021/04/27 02:27:19;;;;;;;;;;;4.20;70.60;;;;;;5050358;28;19990;-76
2021/04/27 02:29:45;;;;;;;;;;;4.20;71.30;;;;;;5032484;28;19924;-76
2021/04/27 02:32:10;;;;;;;;;;;4.20;71.10;;;;;;5050876;28;19928;-76
2021/04/27 02:34:36;;;;;;;;;;;4.10;71.00;;;;;;5015181;28;19932;-75
2021/04/27 02:37:01;;;;;;;;;;;4.10;71.20;;;;;;5033071;28;20484;-76
2021/04/27 02:39:27;;;;;;;;;;;4.10;70.80;;;;;;5049844;28;20019;-76
2021/04/27 02:41:57;;;;;;;;;;;4.00;72.20;;;;;;5032332;28;19932;-76
2021/04/27 02:44:23;;;;;;;;;;;4.00;70.80;;;;;;5050407;28;19978;-76
2021/04/27 02:46:50;;;;;;;;;;;4.00;70.70;;;;;;5048013;28;19917;-76
2021/04/27 02:49:16;;;;;;;;;;;3.90;71.90;;;;;;5048808;28;19923;-76
2021/04/27 02:51:41;;;;;;;;;;;3.90;71.70;;;;;;5049904;28;19921;-76
2021/04/27 02:54:09;;;;;;;;;;;3.90;72.20;;;;;;5031229;28;19928;-76
2021/04/27 02:56:35;;;;;;;;;;;3.90;71.70;;;;;;5002561;28;19921;-75
2021/04/27 02:59:01;;;;;;;;;;;3.90;71.80;;;;;;5050177;28;20396;-76
2021/04/27 03:01:27;;;;;;;;;;;3.90;71.00;;;;;;5049595;28;20369;-76
2021/04/27 03:03:54;;;;;;;;;;;3.80;71.50;;;;;;5049855;28;19980;-76
2021/04/27 03:06:22;;;;;;;;;;;3.80;71.80;;;;;;5031843;28;19940;-75
2021/04/27 03:08:50;;;;;;;;;;;3.70;73.70;;;;;;5017155;28;19929;-76
2021/04/27 03:11:15;;;;;;;;;;;3.70;72.20;;;;;;5048376;28;19921;-76
2021/04/27 03:13:41;;;;;;;;;;;3.70;72.10;;;;;;5049283;28;20365;-76
2021/04/27 03:16:07;;;;;;;;;;;3.60;73.90;;;;;;5032265;28;19970;-76
2021/04/27 03:18:35;;;;;;;;;;;3.60;72.40;;;;;;5014846;28;20008;-75
2021/04/27 03:21:00;;;;;;;;;;;3.60;71.80;;;;;;5031228;28;19921;-76
2021/04/27 03:23:28;;;;;;;;;;;3.50;74.70;;;;;;5030552;28;19968;-76
2021/04/27 03:25:56;;;;;;;;;;;3.50;73.80;;;;;;5049358;28;19970;-76
2021/04/27 03:28:22;;;;;;;;;;;3.40;73.20;;;;;;5030815;28;20490;-76
2021/04/27 03:30:49;;;;;;;;;;;3.30;73.10;;;;;;5047935;28;20453;-76
2021/04/27 03:33:17;;;;;;;;;;;3.30;72.30;;;;;;5049355;28;19994;-75
2021/04/27 03:35:45;;;;;;;;;;;3.30;72.00;;;;;;5049892;28;20003;-76
2021/04/27 03:38:11;;;;;;;;;;;3.20;72.80;;;;;;5048223;28;19951;-76
2021/04/27 03:40:37;;;;;;;;;;;3.20;74.40;;;;;;5049034;28;19999;-76
2021/04/27 03:43:02;;;;;;;;;;;3.20;73.60;;;;;;5031457;28;20564;-76
2021/04/27 03:45:35;;;;;;;;;;;3.10;73.90;;;;;;5030263;28;20369;-76
2021/04/27 03:48:12;;;;;;;;;;;3.10;74.00;;;;;;5032041;28;19920;-76
2021/04/27 03:50:38;;;;;;;;;;;3.10;72.80;;;;;;5031118;28;19927;-76
2021/04/27 03:53:05;;;;;;;;;;;3.00;73.90;;;;;;5032009;28;19925;-76
2021/04/27 03:55:31;;;;;;;;;;;3.00;74.00;;;;;;5048392;28;20337;-76
2021/04/27 03:57:57;;;;;;;;;;;3.00;75.70;;;;;;5049238;28;19958;-76
2021/04/27 04:00:24;;;;;;;;;;;2.90;76.20;;;;;;5047927;28;19928;-76
2021/04/27 04:02:50;;;;;;;;;;;2.90;75.80;;;;;;5046722;28;20012;-76
2021/04/27 04:05:16;;;;;;;;;;;2.90;75.50;;;;;;5028892;28;19921;-76
2021/04/27 04:07:41;;;;;;;;;;;2.80;75.10;;;;;;5047270;28;21578;-76
2021/04/27 04:10:08;;;;;;;;;;;2.70;74.60;;;;;;5015528;28;19999;-76
2021/04/27 04:12:36;;;;;;;;;;;2.70;74.40;;;;;;5048258;28;19924;-75
2021/04/27 04:15:04;;;;;;;;;;;2.70;75.40;;;;;;5029778;28;19924;-76
2021/04/27 04:17:29;;;;;;;;;;;2.70;75.60;;;;;;5048326;28;20557;-76
2021/04/27 04:19:55;;;;;;;;;;;2.70;75.20;;;;;;5048299;28;19920;-76
2021/04/27 04:22:20;;;;;;;;;;;2.70;75.70;;;;;;5014656;28;19978;-76
2021/04/27 04:24:46;;;;;;;;;;;2.70;76.20;;;;;;5030258;28;19920;-76
2021/04/27 04:27:14;;;;;;;;;;;2.60;76.80;;;;;;5034124;28;19920;-75
2021/04/27 04:29:39;;;;;;;;;;;2.60;76.40;;;;;;5048259;28;19921;-76
2021/04/27 04:32:13;;;;;;;;;;;2.60;77.60;;;;;;5048573;28;19930;-76
2021/04/27 04:34:41;;;;;;;;;;;2.60;75.70;;;;;;5046991;28;19955;-76
2021/04/27 04:37:09;;;;;;;;;;;2.60;76.80;;;;;;5047021;28;19921;-76
2021/04/27 04:39:35;;;;;;;;;;;2.60;77.00;;;;;;5027043;28;20362;-76
2021/04/27 04:42:03;;;;;;;;;;;2.60;75.20;;;;;;5019945;28;19925;-76
2021/04/27 04:44:28;;;;;;;;;;;2.60;76.70;;;;;;5012448;28;20373;-76
2021/04/27 04:46:55;;;;;;;;;;;2.60;77.00;;;;;;5048642;28;19920;-77
2021/04/27 04:49:20;;;;;;;;;;;2.60;76.30;;;;;;5031261;28;19921;-76
2021/04/27 04:51:46;;;;;;;;;;;2.60;76.20;;;;;;5048739;28;19925;-76
2021/04/27 04:54:11;;;;;;;;;;;2.60;76.80;;;;;;5048256;28;19969;-76
2021/04/27 04:56:37;;;;;;;;;;;2.70;76.90;;;;;;5013104;28;19986;-76
2021/04/27 04:59:02;;;;;;;;;;;2.70;77.50;;;;;;5028323;28;19928;-76
2021/04/27 05:01:30;;;;;;;;;;;2.70;77.90;;;;;;5014540;28;20347;-77
2021/04/27 05:03:58;;;;;;;;;;;2.70;77.10;;;;;;5046230;28;19952;-76
2021/04/27 05:06:27;;;;;;;;;;;2.80;78.00;;;;;;5046173;28;19916;-76
2021/04/27 05:08:54;;;;;;;;;;;2.90;77.10;;;;;;5031923;28;19924;-76
2021/04/27 05:11:20;;;;;;;;;;;2.90;77.20;;;;;;5047945;28;19921;-76
2021/04/27 05:13:46;;;;;;;;;;;3.00;77.90;;;;;;5014916;28;19943;-76
2021/04/27 05:16:11;;;;;;;;;;;3.10;79.20;;;;;;5046990;28;19916;-76
2021/04/27 05:18:37;;;;;;;;;;;3.30;76.00;;;;;;5029105;28;19968;-76
2021/04/27 05:21:05;;;;;;;;;;;3.40;75.80;;;;;;5030080;28;20012;-76
2021/04/27 05:23:31;;;;;;;;;;;3.60;74.70;;;;;;5047109;28;20008;-76
2021/04/27 05:25:56;;;;;;;;;;;3.70;73.40;;;;;;5029965;28;20313;-76
2021/04/27 05:28:22;;;;;;;;;;;4.00;71.50;;;;;;5029303;28;19921;-76
2021/04/27 05:30:47;;;;;;;;;;;4.10;71.10;;;;;;5047118;28;20313;-76
2021/04/27 05:33:13;;;;;;;;;;;4.30;69.40;;;;;;5027618;28;19990;-76
2021/04/27 05:35:41;;;;;;;;;;;4.50;68.10;;;;;;5048197;28;20015;-76
2021/04/27 05:38:09;;;;;;;;;;;4.60;67.40;;;;;;5046801;28;19959;-76
2021/04/27 05:40:34;;;;;;;;;;;4.70;66.90;;;;;;5045723;28;20365;-77
2021/04/27 05:43:00;;;;;;;;;;;4.80;66.70;;;;;;5027529;28;19917;-76
2021/04/27 05:45:25;;;;;;;;;;;4.90;67.40;;;;;;5027430;28;19921;-76
2021/04/27 05:47:51;;;;;;;;;;;5.10;64.60;;;;;;5046963;28;21844;-76
2021/04/27 05:50:16;;;;;;;;;;;5.10;66.70;;;;;;5046789;28;19943;-76
2021/04/27 05:52:42;;;;;;;;;;;5.20;65.70;;;;;;5028225;28;20520;-76
2021/04/27 05:55:07;;;;;;;;;;;5.30;65.80;;;;;;5045884;28;19931;-76
2021/04/27 05:57:33;;;;;;;;;;;5.30;64.70;;;;;;5044219;28;20475;-76
2021/04/27 05:59:58;;;;;;;;;;;5.50;63.70;;;;;;5047947;28;19929;-76
2021/04/27 06:02:26;;;;;;;;;;;5.50;62.40;;;;;;5028623;28;19966;-76
2021/04/27 06:04:52;;;;;;;;;;;5.60;62.90;;;;;;5045965;28;19947;-76
2021/04/27 06:07:18;;;;;;;;;;;5.60;64.20;;;;;;5029642;28;20477;-76
2021/04/27 06:09:44;;;;;;;;;;;5.60;64.60;;;;;;5048825;28;19920;-75
2021/04/27 06:12:11;;;;;;;;;;;5.70;62.90;;;;;;5051012;28;19931;-74
2021/04/27 06:14:37;;;;;;;;;;;5.70;64.90;;;;;;5049905;28;20633;-75
2021/04/27 06:17:05;;;;;;;;;;;5.80;63.60;;;;;;5051308;28;19917;-75
2021/04/27 06:19:30;;;;;;;;;;;5.80;62.30;;;;;;5049306;28;19931;-75
2021/04/27 06:21:58;;;;;;;;;;;5.80;63.30;;;;;;5052159;28;19928;-75
2021/04/27 06:24:24;;;;;;;;;;;5.80;63.00;;;;;;5051114;28;19928;-75
2021/04/27 06:26:49;;;;;;;;;;;5.90;62.60;;;;;;5030683;28;19921;-77
2021/04/27 06:29:15;;;;;;;;;;;5.90;62.90;;;;;;5050478;28;20270;-77
2021/04/27 06:31:43;;;;;;;;;;;5.90;61.10;;;;;;5031875;28;20835;-75
2021/04/27 06:34:10;;;;;;;;;;;6.00;62.00;;;;;;5031856;28;19932;-75
2021/04/27 06:36:36;;;;;;;;;;;6.00;61.50;;;;;;5048886;28;19913;-76
2021/04/27 06:39:04;;;;;;;;;;;6.10;59.00;;;;;;5031955;28;19928;-76
2021/04/27 06:41:32;;;;;;;;;;;6.10;62.00;;;;;;5045863;28;19948;-77
2021/04/27 06:44:04;;;;;;;;;;;6.20;60.30;;;;;;5048809;28;19927;-76
2021/04/27 06:46:29;;;;;;;;;;;6.20;62.60;;;;;;5047322;28;20905;-75
2021/04/27 06:48:55;;;;;;;;;;;6.30;61.00;;;;;;5046386;28;19963;-74
2021/04/27 06:51:21;;;;;;;;;;;6.30;60.30;;;;;;5027844;28;20019;-75
2021/04/27 06:53:46;;;;;;;;;;;6.40;60.80;;;;;;5046948;28;19936;-75
2021/04/27 06:56:12;;;;;;;;;;;6.40;60.50;;;;;;5028088;28;19920;-75
2021/04/27 06:58:40;;;;;;;;;;;6.50;60.90;;;;;;5046565;28;20293;-75
2021/04/27 07:01:05;;;;;;;;;;;6.60;60.80;;;;;;5043829;28;19994;-77
2021/04/27 07:03:32;;;;;;;;;;;6.60;59.30;;;;;;5027819;28;20051;-79
2021/04/27 07:05:57;;;;;;;;;;;6.60;58.30;;;;;;5044908;28;20043;-75
2021/04/27 07:08:25;;;;;;;;;;;6.60;59.80;;;;;;5045754;28;20653;-74
2021/04/27 07:10:51;;;;;;;;;;;6.70;60.20;;;;;;5044378;28;19938;-75
2021/04/27 07:13:20;;;;;;;;;;;6.70;60.30;;;;;;5045610;28;19921;-75
2021/04/27 07:15:48;;;;;;;;;;;6.80;59.50;;;;;;5044305;28;20235;-75
2021/04/27 07:18:14;;;;;;;;;;;6.90;60.80;;;;;;5035174;28;19917;-75
2021/04/27 07:20:40;;;;;;;;;;;7.00;59.90;;;;;;5042804;28;19927;-75
2021/04/27 07:23:06;;;;;;;;;;;7.10;60.10;;;;;;5042487;28;19920;-75
2021/04/27 07:25:31;;;;;;;;;;;7.20;58.90;;;;;;5044280;28;20421;-75
2021/04/27 07:27:57;;;;;;;;;;;7.20;60.50;;;;;;5029044;28;19921;-76
2021/04/27 07:30:22;;;;;;;;;;;7.20;58.00;;;;;;5044756;28;19920;-75
2021/04/27 07:32:48;;;;;;;;;;;7.30;60.00;;;;;;5044744;28;20428;-76
2021/04/27 07:35:14;;;;;;;;;;;7.40;60.00;;;;;;5025852;28;19921;-76
2021/04/27 07:37:39;;;;;;;;;;;7.50;59.10;;;;;;5043887;28;19921;-78
2021/04/27 07:40:05;;;;;;;;;;;7.60;57.90;;;;;;5045290;28;19920;-77
2021/04/27 07:42:31;;;;;;;;;;;7.70;58.70;;;;;;5042042;28;19921;-76
2021/04/27 07:44:56;;;;;;;;;;;7.90;59.50;;;;;;5043662;28;20542;-75
2021/04/27 07:47:22;;;;;;;;;;;8.00;57.80;;;;;;5044911;28;21277;-76
2021/04/27 07:49:50;;;;;;;;;;;8.10;58.10;;;;;;5043007;28;21750;-75
2021/04/27 07:52:18;;;;;;;;;;;8.10;55.80;;;;;;5026895;28;19974;-76
2021/04/27 07:54:45;;;;;;;;;;;8.20;55.70;;;;;;5027267;28;20015;-76
2021/04/27 07:57:13;;;;;;;;;;;8.30;57.70;;;;;;5043934;28;19921;-76
2021/04/27 07:59:38;;;;;;;;;;;8.40;55.00;;;;;;5008429;28;20708;-76
2021/04/27 08:02:06;;;;;;;;;;;8.60;57.80;;;;;;5044363;28;19935;-76
2021/04/27 08:04:32;;;;;;;;;;;8.80;56.50;;;;;;5042788;28;19936;-76
2021/04/27 08:07:00;;;;;;;;;;;8.90;56.40;;;;;;5043905;28;19925;-76
2021/04/27 08:09:26;;;;;;;;;;;9.10;57.20;;;;;;5027679;28;19916;-76
2021/04/27 08:11:53;;;;;;;;;;;9.40;56.50;;;;;;5043466;28;19932;-76
2021/04/27 08:14:19;;;;;;;;;;;9.60;58.90;;;;;;5043167;28;19939;-76
2021/04/27 08:16:45;;;;;;;;;;;9.90;59.40;;;;;;5013979;28;21951;-77
2021/04/27 08:19:10;;;;;;;;;;;10.20;58.50;;;;;;5043406;28;19920;-76
2021/04/27 08:21:37;;;;;;;;;;;10.40;57.60;;;;;;5027653;28;19979;-76
2021/04/27 08:24:03;;;;;;;;;;;10.50;56.60;;;;;;5027632;28;19943;-76
2021/04/27 08:26:28;;;;;;;;;;;10.60;54.00;;;;;;5043540;28;19924;-76
2021/04/27 08:28:56;;;;;;;;;;;10.70;55.30;;;;;;5042894;28;19931;-77
2021/04/27 08:31:22;;;;;;;;;;;10.90;57.40;;;;;;5043028;28;19921;-76
2021/04/27 08:33:47;;;;;;;;;;;11.00;54.10;;;;;;5041887;28;20595;-78
2021/04/27 08:36:15;;;;;;;;;;;11.20;56.00;;;;;;5042191;28;20347;-77
2021/04/27 08:38:43;;;;;;;;;;;11.20;53.70;;;;;;5042923;28;20010;-76
2021/04/27 08:41:11;;;;;;;;;;;11.50;54.60;;;;;;5025650;28;20007;-76
2021/04/27 08:43:36;;;;;;;;;;;11.60;56.30;;;;;;5041134;28;20350;-76
2021/04/27 08:46:04;;;;;;;;;;;11.50;53.30;;;;;;5043135;28;19995;-76
2021/04/27 08:48:30;;;;;;;;;;;11.50;51.50;;;;;;5026651;28;19916;-76
2021/04/27 08:50:56;;;;;;;;;;;11.60;54.80;;;;;;5027674;28;19928;-77
2021/04/27 08:53:22;;;;;;;;;;;11.60;51.00;;;;;;5045636;28;19921;-76
2021/04/27 08:55:52;;;;;;;;;;;11.90;56.30;;;;;;5028004;28;19924;-77
2021/04/27 08:58:18;;;;;;;;;;;12.00;52.80;;;;;;5044913;28;19917;-77
2021/04/27 09:00:44;;;;;;;;;;;12.00;55.30;;;;;;5044571;28;19931;-76
2021/04/27 09:03:09;;;;;;;;;;;12.20;53.00;;;;;;5046133;28;19917;-76
2021/04/27 09:05:36;;;;;;;;;;;12.40;53.20;;;;;;5045944;28;20073;-76
2021/04/27 09:08:04;;;;;;;;;;;12.60;55.00;;;;;;5046002;28;20027;-76
2021/04/27 09:10:30;;;;;;;;;;;12.70;53.00;;;;;;5026420;28;19932;-76
2021/04/27 09:12:57;;;;;;;;;;;12.70;50.50;;;;;;5044523;28;19936;-76
2021/04/27 09:15:27;;;;;;;;;;;12.90;54.00;;;;;;5045556;28;19931;-77
2021/04/27 09:17:52;;;;;;;;;;;13.00;53.70;;;;;;5025614;28;19944;-76
2021/04/27 09:20:18;;;;;;;;;;;13.20;53.60;;;;;;5045383;28;20369;-78
2021/04/27 09:22:49;;;;;;;;;;;13.30;53.50;;;;;;5045595;28;19927;-78
2021/04/27 09:25:15;;;;;;;;;;;13.20;49.50;;;;;;5029128;28;19986;-77
2021/04/27 09:27:42;;;;;;;;;;;13.00;47.80;;;;;;5026525;28;19935;-77
2021/04/27 09:30:15;;;;;;;;;;;13.30;54.10;;;;;;5047146;28;19984;-77
2021/04/27 09:32:42;;;;;;;;;;;13.50;52.00;;;;;;5045720;28;19968;-77
2021/04/27 09:35:26;;;;;;;;;;;13.60;48.50;;;;;;5045278;28;19928;-77
2021/04/27 09:38:13;;;;;;;;;;;13.60;48.00;;;;;;5043163;28;20003;-77
2021/04/27 09:40:47;;;;;;;;;;;13.60;51.90;;;;;;5045866;28;19927;-77
2021/04/27 09:43:15;;;;;;;;;;;13.80;48.80;;;;;;5045158;28;19923;-77
2021/04/27 09:45:41;;;;;;;;;;;14.00;52.50;;;;;;5047158;28;19931;-77
2021/04/27 09:48:07;;;;;;;;;;;14.10;51.40;;;;;;5032582;28;20262;-77
2021/04/27 09:50:33;;;;;;;;;;;14.40;50.80;;;;;;5050567;28;19920;-77
2021/04/27 09:52:58;;;;;;;;;;;14.40;50.30;;;;;;5033168;28;19935;-77
2021/04/27 09:55:26;;;;;;;;;;;14.70;50.40;;;;;;5050424;28;20027;-77
2021/04/27 09:57:55;;;;;;;;;;;14.90;48.70;;;;;;5049232;28;19961;-76
2021/04/27 10:00:34;;;;;;;;;;;15.00;49.60;;;;;;5049371;28;19920;-77
2021/04/27 10:03:00;;;;;;;;;;;14.90;51.40;;;;;;5031509;28;20009;-77
2021/04/27 10:05:26;;;;;;;;;;;14.90;46.30;;;;;;5032151;28;19928;-77
2021/04/27 10:07:52;;;;;;;;;;;15.00;49.60;;;;;;5047388;28;19948;-78
2021/04/27 10:10:18;;;;;;;;;;;14.40;44.60;;;;;;5048427;28;19928;-77
2021/04/27 10:12:44;;;;;;;;;;;14.70;48.90;;;;;;5015046;28;19920;-77
2021/04/27 10:15:10;;;;;;;;;;;14.90;49.10;;;;;;5049059;28;19921;-77
2021/04/27 10:17:35;;;;;;;;;;;14.90;49.10;;;;;;5049459;28;19987;-77
2021/04/27 10:20:03;;;;;;;;;;;14.70;46.80;;;;;;5030537;28;19917;-77
2021/04/27 10:22:28;;;;;;;;;;;14.70;47.20;;;;;;5031972;28;19916;-77
2021/04/27 10:24:55;;;;;;;;;;;14.70;47.40;;;;;;5016215;28;19928;-77
2021/04/27 10:27:26;;;;;;;;;;;14.90;49.50;;;;;;5032280;28;19913;-78
2021/04/27 10:30:11;;;;;;;;;;;15.30;45.70;;;;;;5035535;28;19938;-77
2021/04/27 10:32:36;;;;;;;;;;;15.40;46.80;;;;;;5048119;28;19983;-77
2021/04/27 10:35:06;;;;;;;;;;;15.70;47.70;;;;;;5031323;28;19925;-77
2021/04/27 10:37:51;;;;;;;;;;;16.00;48.90;;;;;;5048351;28;19939;-77
2021/04/27 10:40:36;;;;;;;;;;;15.90;46.40;;;;;;5048245;28;19917;-77
2021/04/27 10:43:21;;;;;;;;;;;15.80;47.70;;;;;;5048503;28;19924;-78
2021/04/27 10:45:49;;;;;;;;;;;15.90;45.40;;;;;;5031013;28;20039;-78
2021/04/27 10:48:30;;;;;;;;;;;15.90;45.20;;;;;;5031846;28;19917;-78
2021/04/27 10:50:56;;;;;;;;;;;16.10;47.50;;;;;;5047791;28;19921;-78
2021/04/27 10:53:31;;;;;;;;;;;15.90;44.30;;;;;;5048052;28;19987;-77
2021/04/27 10:55:57;;;;;;;;;;;15.30;43.80;;;;;;5048742;28;19912;-77
2021/04/27 10:58:42;;;;;;;;;;;15.60;43.60;;;;;;5047356;28;19913;-78
2021/04/27 11:01:20;;;;;;;;;;;15.80;45.30;;;;;;5047621;28;19920;-78
2021/04/27 11:03:49;;;;;;;;;;;15.70;44.10;;;;;;5047006;28;19921;-78
2021/04/27 11:06:17;;;;;;;;;;;16.20;44.40;;;;;;5030713;28;19920;-77
2021/04/27 11:08:52;;;;;;;;;;;16.50;43.40;;;;;;5048140;28;19933;-77
2021/04/27 11:11:19;;;;;;;;;;;16.50;43.20;;;;;;5030518;28;19916;-78
2021/04/27 11:13:45;;;;;;;;;;;16.90;44.90;;;;;;5048460;28;19991;-78
2021/04/27 11:16:24;;;;;;;;;;;16.40;41.40;;;;;;5047620;28;19928;-78
2021/04/27 11:18:49;;;;;;;;;;;16.70;46.40;;;;;;5034486;28;19931;-77
2021/04/27 11:21:15;;;;;;;;;;;17.00;46.30;;;;;;5048457;28;19921;-78
2021/04/27 11:23:43;;;;;;;;;;;17.50;41.60;;;;;;5027822;28;20243;-78
2021/04/27 11:26:27;;;;;;;;;;;17.70;41.70;;;;;;5034721;28;20043;-78
2021/04/27 11:28:53;;;;;;;;;;;16.90;40.70;;;;;;5034840;28;19928;-78
2021/04/27 11:31:23;;;;;;;;;;;17.20;42.60;;;;;;4700248;28;10000099;-78
2021/04/27 11:34:01;;;;;;;;;;;17.40;44.90;;;;;;5047283;28;20004;-79
2021/04/27 11:36:33;;;;;;;;;;;17.80;44.70;;;;;;5046046;28;19920;-78
2021/04/27 11:39:01;;;;;;;;;;;17.70;40.80;;;;;;5045485;28;19951;-78
2021/04/27 11:41:43;;;;;;;;;;;18.30;42.60;;;;;;5028594;28;20042;-80
2021/04/27 11:44:09;;;;;;;;;;;17.90;38.90;;;;;;5045581;28;19938;-79
2021/04/27 11:46:53;;;;;;;;;;;17.50;42.20;;;;;;5026579;28;19947;-77
2021/04/27 11:49:21;;;;;;;;;;;17.20;39.40;;;;;;5046265;28;21733;-76
2021/04/27 11:51:47;;;;;;;;;;;16.70;37.00;;;;;;5027435;28;19921;-76
2021/04/27 11:54:13;;;;;;;;;;;17.30;41.80;;;;;;5045728;28;19917;-76
2021/04/27 11:56:51;;;;;;;;;;;17.60;38.00;;;;;;5047346;28;19974;-78
2021/04/27 11:59:19;;;;;;;;;;;17.90;39.00;;;;;;5045980;28;20059;-77
2021/04/27 12:01:47;;;;;;;;;;;18.50;40.60;;;;;;5028270;28;19924;-77
2021/04/27 12:04:13;;;;;;;;;;;18.50;41.20;;;;;;5044493;28;19917;-77
2021/04/27 12:06:39;;;;;;;;;;;18.70;38.50;;;;;;5024949;28;19917;-77
2021/04/27 12:09:11;;;;;;;;;;;18.70;43.90;;;;;;4697395;28;10000416;-77
2021/04/27 12:11:37;;;;;;;;;;;18.60;36.80;;;;;;5045243;28;19917;-77
2021/04/27 12:14:06;;;;;;;;;;;18.70;37.70;;;;;;5028442;28;19943;-77
2021/04/27 12:16:32;;;;;;;;;;;19.00;40.60;;;;;;5007401;28;19921;-77
2021/04/27 12:18:59;;;;;;;;;;;19.40;38.90;;;;;;5045883;28;19927;-77
2021/04/27 12:21:44;;;;;;;;;;;19.90;37.60;;;;;;5027964;28;20393;-77
2021/04/27 12:24:10;;;;;;;;;;;20.30;35.00;;;;;;5027861;28;20257;-77
2021/04/27 12:26:36;;;;;;;;;;;19.80;34.50;;;;;;5045823;28;19920;-77
2021/04/27 12:29:02;;;;;;;;;;;19.90;35.10;;;;;;5027850;28;20001;-77
2021/04/27 12:31:28;;;;;;;;;;;19.90;34.00;;;;;;5027671;28;19927;-77
2021/04/27 12:33:57;;;;;;;;;;;20.20;36.00;;;;;;5046690;28;19924;-77
2021/04/27 12:36:43;;;;;;;;;;;20.60;34.60;;;;;;5028929;28;19932;-77
2021/04/27 12:39:24;;;;;;;;;;;20.60;32.40;;;;;;5028404;28;19921;-77
2021/04/27 12:41:53;;;;;;;;;;;20.40;36.80;;;;;;5030997;28;19928;-77
2021/04/27 12:44:29;;;;;;;;;;;20.30;35.60;;;;;;5046995;28;20818;-76
2021/04/27 12:46:55;;;;;;;;;;;20.30;38.50;;;;;;5027083;28;19921;-77
2021/04/27 12:49:30;;;;;;;;;;;21.00;34.80;;;;;;5046284;28;20669;-77
2021/04/27 12:52:16;;;;;;;;;;;20.10;32.20;;;;;;5027170;28;19999;-77
2021/04/27 12:54:44;;;;;;;;;;;20.00;32.00;;;;;;5046394;28;19982;-77
2021/04/27 12:57:13;;;;;;;;;;;19.90;33.70;;;;;;5044571;28;19921;-77
2021/04/27 12:59:39;;;;;;;;;;;19.80;34.30;;;;;;5018441;28;19928;-77
2021/04/27 13:02:10;;;;;;;;;;;19.80;34.20;;;;;;5008509;28;19916;-77
2021/04/27 13:04:40;;;;;;;;;;;19.60;33.80;;;;;;5045971;28;19921;-76
2021/04/27 13:07:05;;;;;;;;;;;19.80;33.90;;;;;;5045761;28;19925;-76
2021/04/27 13:09:31;;;;;;;;;;;20.00;37.70;;;;;;5009453;28;19917;-77
2021/04/27 13:12:06;;;;;;;;;;;20.90;35.60;;;;;;5046399;28;20062;-76
2021/04/27 13:14:32;;;;;;;;;;;21.10;34.90;;;;;;5028863;28;19917;-77
2021/04/27 13:16:59;;;;;;;;;;;20.70;31.10;;;;;;5009016;28;19920;-79
2021/04/27 13:19:24;;;;;;;;;;;19.60;31.50;;;;;;5045964;28;19921;-77
2021/04/27 13:22:08;;;;;;;;;;;20.00;33.50;;;;;;5049749;28;19917;-76
2021/04/27 13:24:37;;;;;;;;;;;19.40;34.40;;;;;;5047891;28;19931;-79
2021/04/27 13:27:08;;;;;;;;;;;19.50;36.50;;;;;;5049411;28;20771;-77
2021/04/27 13:29:37;;;;;;;;;;;19.90;38.00;;;;;;5031786;28;20015;-77
2021/04/27 13:32:11;;;;;;;;;;;19.80;38.60;;;;;;5051255;28;19920;-77
2021/04/27 13:34:37;;;;;;;;;;;19.00;33.50;;;;;;5029887;28;20107;-77
2021/04/27 13:37:03;;;;;;;;;;;19.50;35.30;;;;;;5031424;28;19917;-78
2021/04/27 13:39:28;;;;;;;;;;;19.30;36.10;;;;;;5032643;28;19966;-77
2021/04/27 13:41:54;;;;;;;;;;;19.20;33.50;;;;;;5029463;28;19931;-77
2021/04/27 13:44:19;;;;;;;;;;;18.80;34.50;;;;;;5049458;28;20354;-77
2021/04/27 13:46:45;;;;;;;;;;;18.40;37.00;;;;;;5051742;28;19913;-77
2021/04/27 13:49:10;;;;;;;;;;;18.40;36.70;;;;;;5049809;28;20028;-77
2021/04/27 13:51:38;;;;;;;;;;;18.40;37.60;;;;;;5049566;28;19927;-77
2021/04/27 13:54:06;;;;;;;;;;;18.60;38.40;;;;;;5050308;28;20007;-76
2021/04/27 13:56:31;;;;;;;;;;;18.50;38.10;;;;;;5048996;28;19961;-76
2021/04/27 13:58:59;;;;;;;;;;;18.40;35.70;;;;;;5049071;28;20007;-77
2021/04/27 14:01:25;;;;;;;;;;;18.60;36.30;;;;;;5049354;28;19921;-77
2021/04/27 14:03:52;;;;;;;;;;;17.90;34.50;;;;;;5049365;28;19920;-77
2021/04/27 14:06:18;;;;;;;;;;;18.10;39.50;;;;;;5050138;28;20837;-76
2021/04/27 14:08:44;;;;;;;;;;;18.20;39.80;;;;;;5017208;28;19924;-77
2021/04/27 14:11:09;;;;;;;;;;;17.90;35.90;;;;;;5049433;28;19983;-77
2021/04/27 14:13:35;;;;;;;;;;;18.20;39.30;;;;;;5049800;28;19936;-76
2021/04/27 14:16:00;;;;;;;;;;;18.40;40.30;;;;;;5048371;28;19917;-75
2021/04/27 14:18:26;;;;;;;;;;;18.50;38.30;;;;;;5030745;28;19983;-78
2021/04/27 14:20:54;;;;;;;;;;;18.20;37.30;;;;;;5047939;28;19921;-76
2021/04/27 14:23:22;;;;;;;;;;;18.30;39.40;;;;;;5049349;28;19931;-76
2021/04/27 14:25:49;;;;;;;;;;;17.90;35.20;;;;;;5029235;28;19930;-76